Terminal Aerodrome Forecast
Issued by NWS

Home | Current Version | Previous Version | Text Only | Print | Product List | Glossary On
Versions: 1 2 3 4 5 6 7 8 9 10 11 12 13 14 15 16
000
FTUS46 KSEW 300106 AAA
TAFHQM
TAF AMD
KHQM 300106Z 3001/3024 16015G25KT 5SM -RA BKN015 OVC030
      TEMPO 3001/3004 3SM -RA BR BKN010 OVC020
     FM300600 25008KT P6SM VCSH SCT012 BKN020
     FM302200 24012G20KT P6SM SCT020=

USA.gov is the U.S. government's official web portal to all federal, state and local government web resources and services.